createdAt,value
2019-03-22T00:01:28.543Z,99.90
2019-03-22T00:04:17.236Z,99.90
2019-03-22T00:07:05.947Z,99.90
2019-03-22T00:09:54.980Z,99.90
2019-03-22T00:12:43.753Z,99.90
2019-03-22T00:15:32.470Z,99.90
2019-03-22T00:18:21.230Z,99.90
2019-03-22T00:21:09.936Z,99.90
2019-03-22T00:23:58.713Z,99.90
2019-03-22T00:26:47.360Z,99.90
2019-03-22T00:29:36.392Z,99.90
2019-03-22T00:32:25.029Z,99.90
2019-03-22T00:35:13.733Z,99.90
2019-03-22T00:38:02.474Z,99.90
2019-03-22T00:40:51.141Z,99.90
2019-03-22T00:43:39.758Z,99.90
2019-03-22T00:46:28.443Z,99.90
2019-03-22T00:49:17.083Z,99.90
2019-03-22T00:52:05.783Z,99.90
2019-03-22T00:54:54.447Z,99.90
2019-03-22T00:57:43.477Z,99.90
2019-03-22T01:03:20.012Z,99.90
2019-03-22T01:06:08.761Z,99.90
2019-03-22T01:08:39.429Z,99.90
2019-03-22T01:11:28.180Z,99.90
2019-03-22T01:14:16.907Z,99.90
2019-03-22T01:17:05.808Z,99.90
2019-03-22T01:19:55.010Z,99.90
2019-03-22T01:22:36.078Z,99.90
2019-03-22T01:25:17.453Z,99.90
2019-03-22T01:27:58.906Z,99.90
2019-03-22T01:30:28.748Z,99.90
2019-03-22T01:33:17.467Z,99.90
2019-03-22T01:36:06.283Z,99.90
2019-03-22T01:38:55.519Z,99.90
2019-03-22T01:41:44.211Z,99.90
2019-03-22T01:44:32.942Z,99.90
2019-03-22T01:47:22.405Z,99.90
2019-03-22T01:52:59.015Z,99.90
2019-03-22T01:55:47.949Z,99.90
2019-03-22T01:58:36.681Z,99.90
2019-03-22T02:01:25.370Z,99.90
2019-03-22T02:07:01.811Z,99.90
2019-03-22T02:09:50.450Z,99.90
2019-03-22T02:12:39.175Z,99.90
2019-03-22T02:15:27.832Z,99.90
2019-03-22T02:21:04.365Z,99.90
2019-03-22T02:23:45.147Z,99.90
2019-03-22T02:26:26.256Z,99.90
2019-03-22T02:29:07.710Z,99.90
2019-03-22T02:31:48.552Z,99.90
2019-03-22T02:34:29.133Z,99.90
2019-03-22T02:37:11.864Z,99.90
2019-03-22T02:39:53.107Z,99.90
2019-03-22T02:42:33.812Z,99.90
2019-03-22T02:45:14.676Z,99.90
2019-03-22T02:47:56.213Z,99.90
2019-03-22T02:50:37.470Z,99.90
2019-03-22T02:53:18.941Z,99.90
2019-03-22T02:55:59.832Z,99.90
2019-03-22T02:58:40.789Z,99.90
2019-03-22T03:01:22.200Z,99.90
2019-03-22T03:04:03.547Z,99.90
2019-03-22T03:06:45.008Z,99.90
2019-03-22T03:09:29.281Z,99.90
2019-03-22T03:12:10.151Z,99.90
2019-03-22T03:14:50.809Z,99.90
2019-03-22T03:17:31.922Z,99.90
2019-03-22T03:20:01.867Z,99.90
2019-03-22T03:22:42.902Z,99.90
2019-03-22T03:25:23.971Z,99.90
2019-03-22T03:28:05.382Z,99.90
2019-03-22T03:30:46.518Z,99.90
2019-03-22T03:33:27.662Z,99.90
2019-03-22T03:36:08.531Z,99.90
2019-03-22T03:38:49.726Z,99.90
2019-03-22T03:41:31.017Z,99.90
2019-03-22T03:44:12.305Z,99.90
2019-03-22T03:46:53.307Z,99.90
2019-03-22T03:49:34.689Z,99.90
2019-03-22T03:52:16.294Z,99.90
2019-03-22T03:54:57.693Z,99.90
2019-03-22T03:57:38.844Z,99.90
2019-03-22T04:00:20.312Z,99.90
2019-03-22T04:03:01.438Z,99.90
2019-03-22T04:05:42.536Z,99.90
2019-03-22T04:08:23.865Z,99.90
2019-03-22T04:11:04.608Z,99.90
2019-03-22T04:13:45.449Z,99.90
2019-03-22T04:16:26.955Z,99.90
2019-03-22T04:19:08.248Z,99.90
2019-03-22T04:21:49.359Z,99.90
2019-03-22T04:24:30.730Z,99.90
2019-03-22T04:27:12.170Z,99.90
2019-03-22T04:29:53.611Z,99.90
2019-03-22T04:32:34.931Z,99.90
2019-03-22T04:35:16.197Z,99.90
2019-03-22T04:37:57.866Z,99.90
2019-03-22T04:40:39.088Z,99.90
2019-03-22T04:43:20.131Z,99.90
2019-03-22T04:46:01.043Z,99.90
2019-03-22T04:48:53.044Z,99.90
2019-03-22T04:52:02.074Z,99.90
2019-03-22T04:58:19.057Z,99.90
2019-03-22T05:01:28.342Z,99.90
2019-03-22T05:04:37.395Z,99.90
2019-03-22T05:07:26.191Z,99.90
2019-03-22T05:10:15.418Z,99.90
2019-03-22T05:13:04.349Z,99.90
2019-03-22T05:16:13.479Z,99.90
2019-03-22T05:21:54.618Z,99.90
2019-03-22T05:24:35.375Z,99.90
2019-03-22T05:27:16.001Z,99.90
2019-03-22T05:29:56.900Z,99.90
2019-03-22T05:32:38.028Z,99.90
2019-03-22T05:35:19.258Z,99.90
2019-03-22T05:38:00.738Z,99.90
2019-03-22T05:40:41.715Z,99.90
2019-03-22T05:43:22.971Z,99.90
2019-03-22T05:46:03.861Z,99.90
2019-03-22T05:48:45.090Z,99.90
2019-03-22T05:51:26.386Z,99.90
2019-03-22T05:54:07.871Z,99.90
2019-03-22T05:56:49.085Z,99.90
2019-03-22T05:59:41.604Z,99.90
2019-03-22T06:02:13.584Z,99.90
2019-03-22T06:04:54.283Z,99.90
2019-03-22T06:07:37.097Z,99.90
2019-03-22T06:10:18.262Z,99.90
2019-03-22T06:12:59.678Z,99.90
2019-03-22T06:15:40.942Z,99.90
2019-03-22T06:18:22.064Z,99.90
2019-03-22T06:21:03.310Z,99.90
2019-03-22T06:23:44.611Z,99.90
2019-03-22T06:26:28.557Z,99.90
2019-03-22T06:29:09.733Z,99.90
2019-03-22T06:31:51.058Z,99.90
2019-03-22T06:34:31.823Z,99.90
2019-03-22T06:37:13.194Z,99.90
2019-03-22T06:39:54.466Z,99.90
2019-03-22T06:42:35.547Z,99.90
2019-03-22T06:45:15.463Z,99.90
2019-03-22T06:48:04.398Z,99.90
2019-03-22T06:50:53.234Z,99.90
2019-03-22T06:53:41.931Z,99.90
2019-03-22T06:56:30.678Z,99.90
2019-03-22T06:59:19.391Z,99.90
2019-03-22T07:02:08.085Z,99.90
2019-03-22T07:04:56.752Z,99.90
2019-03-22T07:07:45.556Z,99.90
2019-03-22T07:10:34.210Z,99.90
2019-03-22T07:13:22.914Z,99.90
2019-03-22T07:16:11.640Z,99.90
2019-03-22T07:19:00.784Z,99.90
2019-03-22T07:21:49.533Z,99.90
2019-03-22T07:24:38.279Z,99.90
2019-03-22T07:27:26.958Z,99.90
2019-03-22T07:30:19.054Z,99.90
2019-03-22T07:33:06.237Z,99.90
2019-03-22T07:35:54.885Z,99.90
2019-03-22T07:38:43.579Z,99.90
2019-03-22T07:41:32.290Z,99.90
2019-03-22T07:44:21.287Z,99.90
2019-03-22T07:47:10.564Z,99.90
2019-03-22T07:49:59.892Z,99.90
2019-03-22T07:52:48.580Z,99.90
2019-03-22T07:58:46.657Z,99.90
2019-03-22T08:01:35.338Z,99.90
2019-03-22T08:04:24.050Z,99.90
2019-03-22T08:07:12.693Z,99.90
2019-03-22T08:10:01.585Z,99.90
2019-03-22T08:12:50.394Z,99.90
2019-03-22T08:15:39.355Z,99.90
2019-03-22T08:18:28.148Z,99.90
2019-03-22T08:21:16.945Z,99.90
2019-03-22T08:23:58.038Z,99.90
2019-03-22T08:26:39.498Z,99.90
2019-03-22T08:29:20.514Z,99.90
2019-03-22T08:32:01.623Z,99.70
2019-03-22T08:34:42.907Z,99.90
2019-03-22T08:37:24.046Z,97.30
2019-03-22T08:40:05.270Z,94.10
2019-03-22T08:42:46.623Z,93.90
2019-03-22T08:45:27.727Z,96.80
2019-03-22T08:48:09.164Z,98.70
2019-03-22T08:50:50.093Z,99.20
2019-03-22T08:53:31.633Z,95.70
2019-03-22T08:56:12.741Z,95.90
2019-03-22T08:58:53.534Z,94.30
2019-03-22T09:01:34.614Z,95.30
2019-03-22T09:04:15.535Z,94.90
2019-03-22T09:06:58.901Z,96.30
2019-03-22T09:09:41.600Z,94.60
2019-03-22T09:12:10.693Z,94.50
2019-03-22T09:14:59.351Z,95.60
2019-03-22T09:17:40.193Z,94.90
2019-03-22T09:20:21.007Z,95.50
2019-03-22T09:23:02.219Z,94.30
2019-03-22T09:25:43.802Z,95.10
2019-03-22T09:28:25.093Z,95.70
2019-03-22T09:31:13.071Z,94.50
2019-03-22T09:33:48.470Z,95.80
2019-03-22T09:36:29.733Z,95.10
2019-03-22T09:39:11.178Z,95.30
2019-03-22T09:41:52.443Z,95.70
2019-03-22T09:44:42.816Z,96.60
2019-03-22T09:47:16.651Z,93.70
2019-03-22T09:49:57.826Z,93.20
2019-03-22T09:52:39.150Z,93.40
2019-03-22T09:55:20.455Z,92.60
2019-03-22T09:58:01.657Z,90.50
2019-03-22T10:00:42.904Z,91.90
2019-03-22T10:03:23.998Z,93.40
2019-03-22T10:06:05.058Z,90.70
2019-03-22T10:08:46.004Z,90.90
2019-03-22T10:11:27.300Z,92.30
2019-03-22T10:14:08.452Z,92.00
2019-03-22T10:16:49.629Z,94.30
2019-03-22T10:19:30.840Z,92.70
2019-03-22T10:22:11.703Z,92.00
2019-03-22T10:24:52.563Z,90.30
2019-03-22T10:27:33.851Z,90.20
2019-03-22T10:30:14.539Z,88.60
2019-03-22T10:32:55.604Z,90.20
2019-03-22T10:35:36.316Z,86.40
2019-03-22T10:38:30.673Z,87.80
2019-03-22T10:41:00.076Z,84.70
2019-03-22T10:43:41.099Z,87.60
2019-03-22T10:46:20.816Z,86.20
2019-03-22T10:49:09.558Z,82.60
2019-03-22T10:51:58.375Z,83.60
2019-03-22T10:54:48.647Z,78.00
2019-03-22T10:57:40.093Z,81.00
2019-03-22T11:00:27.749Z,79.70
2019-03-22T11:03:16.461Z,75.60
2019-03-22T11:06:05.194Z,74.00
2019-03-22T11:08:53.858Z,65.40
2019-03-22T11:11:42.501Z,64.10
2019-03-22T11:14:23.567Z,66.30
2019-03-22T11:17:04.226Z,65.60
2019-03-22T11:19:45.784Z,64.70
2019-03-22T11:22:26.731Z,60.30
2019-03-22T11:25:08.352Z,59.30
2019-03-22T11:27:49.782Z,58.70
2019-03-22T11:30:30.331Z,65.20
2019-03-22T11:33:11.420Z,60.10
2019-03-22T11:35:52.689Z,60.60
2019-03-22T11:38:33.716Z,59.80
2019-03-22T11:41:15.017Z,59.00
2019-03-22T11:43:56.524Z,60.50
2019-03-22T11:46:37.983Z,60.60
2019-03-22T11:49:19.447Z,58.60
2019-03-22T11:52:00.815Z,58.30
2019-03-22T11:54:41.874Z,56.40
2019-03-22T11:57:22.755Z,55.70
2019-03-22T12:00:03.721Z,57.50
2019-03-22T12:02:44.685Z,53.80
2019-03-22T12:05:25.735Z,52.90
2019-03-22T12:08:06.812Z,54.40
2019-03-22T12:10:48.129Z,54.00
2019-03-22T12:13:28.784Z,54.70
2019-03-22T12:16:10.037Z,53.60
2019-03-22T12:18:51.208Z,53.90
2019-03-22T12:21:32.259Z,53.30
2019-03-22T12:24:13.837Z,52.40
2019-03-22T12:26:57.581Z,58.00
2019-03-22T12:29:39.067Z,52.30
2019-03-22T12:32:20.116Z,50.20
2019-03-22T12:35:01.297Z,50.00
2019-03-22T12:37:42.230Z,51.10
2019-03-22T12:40:23.634Z,49.40
2019-03-22T12:42:54.122Z,51.20
2019-03-22T12:45:43.124Z,49.70
2019-03-22T12:48:31.784Z,49.90
2019-03-22T12:51:20.424Z,50.10
2019-03-22T12:53:50.474Z,49.80
2019-03-22T12:56:39.167Z,50.00
2019-03-22T12:59:28.155Z,50.90
2019-03-22T13:01:58.510Z,51.40
2019-03-22T13:04:47.192Z,53.70
2019-03-22T13:07:36.142Z,47.60
2019-03-22T13:10:24.930Z,48.50
2019-03-22T13:13:06.092Z,50.10
2019-03-22T13:15:47.222Z,52.00
2019-03-22T13:18:28.496Z,51.20
2019-03-22T13:21:09.397Z,53.40
2019-03-22T13:23:51.529Z,50.30
2019-03-22T13:26:32.355Z,50.20
2019-03-22T13:29:13.633Z,52.00
2019-03-22T13:31:54.505Z,50.00
2019-03-22T13:34:35.886Z,51.70
2019-03-22T13:37:16.679Z,51.50
2019-03-22T13:39:58.481Z,51.10
2019-03-22T13:42:39.149Z,49.20
2019-03-22T13:45:20.358Z,50.50
2019-03-22T13:48:01.600Z,51.40
2019-03-22T13:50:43.301Z,51.90
2019-03-22T13:53:23.141Z,55.00
2019-03-22T13:56:44.836Z,52.40
2019-03-22T13:59:33.733Z,51.90
2019-03-22T14:02:23.071Z,49.00
2019-03-22T14:05:13.338Z,55.20
2019-03-22T14:08:02.190Z,50.30
2019-03-22T14:10:51.064Z,49.90
2019-03-22T14:13:31.661Z,51.80
2019-03-22T14:16:13.114Z,51.10
2019-03-22T14:18:54.320Z,53.00
2019-03-22T14:21:35.729Z,52.30
2019-03-22T14:24:17.168Z,53.60
2019-03-22T14:26:58.418Z,51.60
2019-03-22T14:29:39.850Z,55.20
2019-03-22T14:32:20.775Z,53.20
2019-03-22T14:35:01.966Z,55.50
2019-03-22T14:37:43.348Z,52.60
2019-03-22T14:40:26.995Z,55.10
2019-03-22T14:43:08.205Z,54.00
2019-03-22T14:45:48.764Z,54.30
2019-03-22T14:48:29.458Z,56.10
2019-03-22T14:51:10.180Z,53.70
2019-03-22T14:53:51.661Z,57.00
2019-03-22T14:56:32.890Z,54.70
2019-03-22T14:59:14.173Z,53.50
2019-03-22T15:01:55.231Z,53.80
2019-03-22T15:04:36.343Z,56.30
2019-03-22T15:07:20.062Z,54.80
2019-03-22T15:10:00.301Z,54.30
2019-03-22T15:12:40.906Z,56.40
2019-03-22T15:15:32.057Z,54.60
2019-03-22T15:18:25.681Z,56.50
2019-03-22T15:21:31.983Z,57.60
2019-03-22T15:24:31.953Z,57.00
2019-03-22T15:27:34.389Z,54.80
2019-03-22T15:30:24.640Z,57.50
2019-03-22T15:33:34.563Z,56.70
2019-03-22T15:36:41.663Z,57.50
2019-03-22T15:39:49.313Z,55.80
2019-03-22T15:42:58.532Z,56.70
2019-03-22T15:45:47.406Z,57.20
2019-03-22T15:48:36.085Z,55.30
2019-03-22T15:51:24.760Z,58.40
2019-03-22T15:54:13.503Z,59.80
2019-03-22T15:57:16.650Z,56.60
2019-03-22T15:59:52.866Z,59.60
2019-03-22T16:02:41.578Z,57.30
2019-03-22T16:05:30.261Z,59.70
2019-03-22T16:08:20.706Z,57.60
2019-03-22T16:11:09.607Z,56.30
2019-03-22T16:13:58.294Z,58.40
2019-03-22T16:16:39.421Z,57.50
2019-03-22T16:19:20.641Z,56.90
2019-03-22T16:22:05.385Z,57.10
2019-03-22T16:24:46.686Z,58.30
2019-03-22T16:27:27.848Z,57.40
2019-03-22T16:30:09.117Z,57.80
2019-03-22T16:32:54.761Z,58.40
2019-03-22T16:38:23.998Z,58.40
2019-03-22T16:41:05.029Z,58.70
2019-03-22T16:43:46.489Z,60.70
2019-03-22T16:46:27.463Z,66.90
2019-03-22T16:49:26.153Z,67.80
2019-03-22T16:51:56.088Z,65.10
2019-03-22T16:54:37.725Z,60.50
2019-03-22T16:57:22.275Z,59.50
2019-03-22T17:00:03.588Z,58.90
2019-03-22T17:02:44.953Z,60.20
2019-03-22T17:05:28.751Z,59.00
2019-03-22T17:08:16.426Z,58.90
2019-03-22T17:10:57.069Z,58.00
2019-03-22T17:14:06.855Z,58.20
2019-03-22T17:19:47.951Z,59.00
2019-03-22T17:22:14.189Z,59.30
2019-03-22T17:24:55.129Z,59.90
2019-03-22T17:27:37.742Z,60.40
2019-03-22T17:30:29.894Z,60.30
2019-03-22T17:33:14.163Z,60.70
2019-03-22T17:36:13.119Z,60.60
2019-03-22T17:38:43.734Z,61.00
2019-03-22T17:41:24.743Z,61.00
2019-03-22T17:44:08.956Z,60.80
2019-03-22T17:46:50.246Z,60.30
2019-03-22T17:49:36.292Z,60.50
2019-03-22T17:52:17.156Z,60.80
2019-03-22T17:54:58.750Z,60.60
2019-03-22T17:57:39.883Z,60.40
2019-03-22T18:00:23.418Z,60.50
2019-03-22T18:03:04.582Z,60.60
2019-03-22T18:05:45.832Z,60.70
2019-03-22T18:08:37.236Z,60.90
2019-03-22T18:11:18.704Z,61.20
2019-03-22T18:14:06.673Z,61.80
2019-03-22T18:16:47.470Z,61.60
2019-03-22T18:19:28.092Z,61.80
2019-03-22T18:25:08.086Z,62.60
2019-03-22T18:27:49.306Z,63.30
2019-03-22T18:30:30.579Z,63.20
2019-03-22T18:33:12.223Z,65.00
2019-03-22T18:35:53.420Z,65.90
2019-03-22T18:38:23.434Z,64.70
2019-03-22T18:41:12.209Z,65.90
2019-03-22T18:44:00.785Z,66.50
2019-03-22T18:46:49.465Z,66.70
2019-03-22T18:49:38.152Z,67.50
2019-03-22T18:52:26.990Z,67.80
2019-03-22T18:54:56.962Z,68.80
2019-03-22T18:57:45.662Z,69.50
2019-03-22T19:00:34.290Z,70.40
2019-03-22T19:03:23.060Z,71.40
2019-03-22T19:06:12.206Z,72.80
2019-03-22T19:09:00.961Z,73.40
2019-03-22T19:11:49.712Z,73.80
2019-03-22T19:14:38.550Z,75.00
2019-03-22T19:17:21.691Z,76.10
2019-03-22T19:20:02.337Z,77.50
2019-03-22T19:22:46.628Z,78.50
2019-03-22T19:25:27.739Z,79.70
2019-03-22T19:28:08.796Z,80.70
2019-03-22T19:30:52.133Z,82.40
2019-03-22T19:33:33.563Z,82.40
2019-03-22T19:36:14.491Z,82.10
2019-03-22T19:38:57.314Z,81.90
2019-03-22T19:41:38.216Z,82.30
2019-03-22T19:44:19.552Z,82.70
2019-03-22T19:47:00.624Z,82.90
2019-03-22T19:49:41.926Z,83.60
2019-03-22T19:52:22.560Z,83.70
2019-03-22T19:55:04.111Z,83.80
2019-03-22T19:57:49.852Z,85.10
2019-03-22T20:00:31.323Z,84.60
2019-03-22T20:03:12.290Z,84.60
2019-03-22T20:05:55.610Z,84.50
2019-03-22T20:08:41.254Z,85.50
2019-03-22T20:11:22.564Z,86.00
2019-03-22T20:14:04.113Z,87.30
2019-03-22T20:16:45.784Z,88.60
2019-03-22T20:19:26.718Z,89.70
2019-03-22T20:21:59.967Z,92.70
2019-03-22T20:24:48.777Z,91.20
2019-03-22T20:27:39.716Z,91.50
2019-03-22T20:30:28.810Z,93.10
2019-03-22T20:33:19.936Z,92.30
2019-03-22T20:36:17.001Z,91.80
2019-03-22T20:39:21.223Z,92.10
2019-03-22T20:41:57.194Z,94.00
2019-03-22T20:47:54.055Z,92.70
2019-03-22T20:50:43.036Z,93.70
2019-03-22T20:53:31.778Z,94.20
2019-03-22T20:56:20.526Z,94.60
2019-03-22T20:59:09.214Z,95.30
2019-03-22T21:01:58.247Z,95.90
2019-03-22T21:04:47.007Z,96.20
2019-03-22T21:07:35.886Z,96.80
2019-03-22T21:10:24.683Z,97.50
2019-03-22T21:13:13.673Z,98.00
2019-03-22T21:15:54.823Z,98.30
2019-03-22T21:18:24.835Z,98.50
2019-03-22T21:21:13.733Z,98.80
2019-03-22T21:24:02.504Z,99.00
2019-03-22T21:26:51.248Z,99.30
2019-03-22T21:29:44.334Z,99.20
2019-03-22T21:32:11.582Z,99.50
2019-03-22T21:35:21.855Z,99.90
2019-03-22T21:37:50.962Z,99.90
2019-03-22T21:41:00.200Z,99.90
2019-03-22T21:43:48.966Z,99.90
2019-03-22T21:46:37.801Z,99.90
2019-03-22T21:49:26.477Z,99.90
2019-03-22T21:52:16.213Z,99.90
2019-03-22T21:55:04.944Z,99.90
2019-03-22T21:57:54.083Z,99.90
2019-03-22T22:00:42.880Z,99.90
2019-03-22T22:03:31.657Z,99.90
2019-03-22T22:06:20.527Z,99.90
2019-03-22T22:08:50.531Z,99.90
2019-03-22T22:11:31.552Z,99.90
2019-03-22T22:14:13.010Z,99.90
2019-03-22T22:16:54.127Z,99.90
2019-03-22T22:19:35.605Z,99.90
2019-03-22T22:22:16.960Z,99.90
2019-03-22T22:25:00.330Z,99.90
2019-03-22T22:27:41.235Z,99.90
2019-03-22T22:30:22.262Z,99.90
2019-03-22T22:33:03.598Z,99.90
2019-03-22T22:38:57.590Z,99.90
2019-03-22T22:41:38.464Z,99.90
2019-03-22T22:44:19.815Z,99.90
2019-03-22T22:47:00.954Z,99.90
2019-03-22T22:49:48.338Z,99.90
2019-03-22T22:52:28.194Z,99.90
2019-03-22T22:55:09.448Z,99.90
2019-03-22T22:57:50.789Z,99.90
2019-03-22T23:00:31.720Z,99.90
2019-03-22T23:03:12.895Z,99.90
2019-03-22T23:05:53.872Z,99.90
2019-03-22T23:08:35.366Z,99.90
2019-03-22T23:11:16.672Z,99.90
2019-03-22T23:13:46.642Z,99.90
2019-03-22T23:16:35.387Z,99.90
2019-03-22T23:19:24.286Z,99.90
2019-03-22T23:22:13.029Z,99.90
2019-03-22T23:25:01.891Z,99.90
2019-03-22T23:27:50.595Z,99.90
2019-03-22T23:30:39.296Z,99.90
2019-03-22T23:33:28.194Z,99.90
2019-03-22T23:36:20.504Z,99.90
2019-03-22T23:39:08.084Z,99.90
2019-03-22T23:41:56.807Z,99.90
2019-03-22T23:44:45.625Z,99.90
2019-03-22T23:47:34.328Z,99.90
2019-03-22T23:50:22.985Z,99.90
2019-03-22T23:53:11.647Z,99.90
2019-03-22T23:56:00.812Z,99.90
2019-03-22T23:58:49.514Z,99.90
